sensor_id;sensor_type;location;lat;lon;timestamp;temperature;humidity
23827;DHT22;12094;50.822;4.376;2023-01-08T00:01:52;10.80;99.90
23827;DHT22;12094;50.822;4.376;2023-01-08T00:04:22;10.80;99.90
23827;DHT22;12094;50.822;4.376;2023-01-08T00:06:51;10.80;99.90
23827;DHT22;12094;50.822;4.376;2023-01-08T00:09:22;10.80;99.90
23827;DHT22;12094;50.822;4.376;2023-01-08T00:11:49;10.80;99.90
23827;DHT22;12094;50.822;4.376;2023-01-08T00:14:17;10.90;99.90
23827;DHT22;12094;50.822;4.376;2023-01-08T00:16:45;10.90;99.90
23827;DHT22;12094;50.822;4.376;2023-01-08T00:19:15;11.00;99.90
23827;DHT22;12094;50.822;4.376;2023-01-08T00:21:43;10.90;99.90
23827;DHT22;12094;50.822;4.376;2023-01-08T00:24:11;10.80;99.90
23827;DHT22;12094;50.822;4.376;2023-01-08T00:26:38;10.30;99.90
23827;DHT22;12094;50.822;4.376;2023-01-08T00:29:09;10.10;99.90
23827;DHT22;12094;50.822;4.376;2023-01-08T00:31:43;10.00;99.90
23827;DHT22;12094;50.822;4.376;2023-01-08T00:34:13;9.80;99.90
23827;DHT22;12094;50.822;4.376;2023-01-08T00:36:40;9.50;99.90
23827;DHT22;12094;50.822;4.376;2023-01-08T00:39:07;9.20;99.90
23827;DHT22;12094;50.822;4.376;2023-01-08T00:41:35;9.00;99.90
23827;DHT22;12094;50.822;4.376;2023-01-08T00:44:03;8.80;99.90
23827;DHT22;12094;50.822;4.376;2023-01-08T00:46:30;8.80;99.90
23827;DHT22;12094;50.822;4.376;2023-01-08T00:48:58;8.70;99.90
23827;DHT22;12094;50.822;4.376;2023-01-08T00:51:25;8.70;99.90
23827;DHT22;12094;50.822;4.376;2023-01-08T00:53:53;8.70;99.90
23827;DHT22;12094;50.822;4.376;2023-01-08T00:56:20;8.70;99.90
23827;DHT22;12094;50.822;4.376;2023-01-08T00:58:49;8.70;99.90
23827;DHT22;12094;50.822;4.376;2023-01-08T01:01:16;8.80;99.90
23827;DHT22;12094;50.822;4.376;2023-01-08T01:03:45;8.80;99.90
23827;DHT22;12094;50.822;4.376;2023-01-08T01:06:13;8.80;99.90
23827;DHT22;12094;50.822;4.376;2023-01-08T01:08:41;8.80;99.90
23827;DHT22;12094;50.822;4.376;2023-01-08T01:11:18;8.80;99.90
23827;DHT22;12094;50.822;4.376;2023-01-08T01:13:45;8.80;99.90
23827;DHT22;12094;50.822;4.376;2023-01-08T01:16:13;8.70;99.90
23827;DHT22;12094;50.822;4.376;2023-01-08T01:18:40;8.70;99.90
23827;DHT22;12094;50.822;4.376;2023-01-08T01:23:44;8.70;99.90
23827;DHT22;12094;50.822;4.376;2023-01-08T01:26:19;8.70;99.90
23827;DHT22;12094;50.822;4.376;2023-01-08T01:28:50;8.70;99.90
23827;DHT22;12094;50.822;4.376;2023-01-08T01:31:18;8.70;99.90
23827;DHT22;12094;50.822;4.376;2023-01-08T01:33:47;8.70;99.90
23827;DHT22;12094;50.822;4.376;2023-01-08T01:36:24;8.70;99.90
23827;DHT22;12094;50.822;4.376;2023-01-08T01:39:19;8.80;99.90
23827;DHT22;12094;50.822;4.376;2023-01-08T01:41:58;8.80;99.90
23827;DHT22;12094;50.822;4.376;2023-01-08T01:44:51;8.70;99.90
23827;DHT22;12094;50.822;4.376;2023-01-08T01:47:42;8.80;99.90
23827;DHT22;12094;50.822;4.376;2023-01-08T01:50:36;8.80;99.90
23827;DHT22;12094;50.822;4.376;2023-01-08T01:53:11;8.80;99.90
23827;DHT22;12094;50.822;4.376;2023-01-08T01:55:43;8.80;99.90
23827;DHT22;12094;50.822;4.376;2023-01-08T01:58:20;8.80;99.90
23827;DHT22;12094;50.822;4.376;2023-01-08T02:00:52;8.80;99.90
23827;DHT22;12094;50.822;4.376;2023-01-08T02:03:22;8.90;99.90
23827;DHT22;12094;50.822;4.376;2023-01-08T02:12:07;9.10;99.90
23827;DHT22;12094;50.822;4.376;2023-01-08T02:20:16;9.30;99.90
23827;DHT22;12094;50.822;4.376;2023-01-08T02:28:01;9.30;99.90
23827;DHT22;12094;50.822;4.376;2023-01-08T02:30:34;9.40;99.90
23827;DHT22;12094;50.822;4.376;2023-01-08T02:33:01;9.40;99.90
23827;DHT22;12094;50.822;4.376;2023-01-08T02:35:49;9.40;99.90
23827;DHT22;12094;50.822;4.376;2023-01-08T02:38:46;9.40;99.90
23827;DHT22;12094;50.822;4.376;2023-01-08T02:41:16;9.40;99.90
23827;DHT22;12094;50.822;4.376;2023-01-08T02:43:48;9.30;99.90
23827;DHT22;12094;50.822;4.376;2023-01-08T02:46:25;9.20;99.90
23827;DHT22;12094;50.822;4.376;2023-01-08T02:49:03;9.00;99.90
23827;DHT22;12094;50.822;4.376;2023-01-08T02:51:39;9.00;99.90
23827;DHT22;12094;50.822;4.376;2023-01-08T02:54:15;9.00;99.90
23827;DHT22;12094;50.822;4.376;2023-01-08T02:56:48;9.00;99.90
23827;DHT22;12094;50.822;4.376;2023-01-08T02:59:18;9.00;99.90
23827;DHT22;12094;50.822;4.376;2023-01-08T03:01:47;9.00;99.90
23827;DHT22;12094;50.822;4.376;2023-01-08T03:04:17;9.00;99.90
23827;DHT22;12094;50.822;4.376;2023-01-08T03:06:49;9.00;99.90
23827;DHT22;12094;50.822;4.376;2023-01-08T03:09:17;9.20;99.90
23827;DHT22;12094;50.822;4.376;2023-01-08T03:11:53;9.20;99.90
23827;DHT22;12094;50.822;4.376;2023-01-08T03:14:40;9.20;99.90
23827;DHT22;12094;50.822;4.376;2023-01-08T03:17:18;9.10;99.90
23827;DHT22;12094;50.822;4.376;2023-01-08T03:19:55;9.10;99.90
23827;DHT22;12094;50.822;4.376;2023-01-08T03:22:25;9.10;99.90
23827;DHT22;12094;50.822;4.376;2023-01-08T03:24:53;9.20;99.90
23827;DHT22;12094;50.822;4.376;2023-01-08T03:27:28;9.00;99.90
23827;DHT22;12094;50.822;4.376;2023-01-08T03:29:58;9.00;99.90
23827;DHT22;12094;50.822;4.376;2023-01-08T03:32:31;9.10;99.90
23827;DHT22;12094;50.822;4.376;2023-01-08T03:35:04;9.00;99.90
23827;DHT22;12094;50.822;4.376;2023-01-08T03:37:37;9.00;99.90
23827;DHT22;12094;50.822;4.376;2023-01-08T03:40:18;9.00;99.90
23827;DHT22;12094;50.822;4.376;2023-01-08T03:42:46;8.90;99.90
23827;DHT22;12094;50.822;4.376;2023-01-08T03:45:13;8.90;99.90
23827;DHT22;12094;50.822;4.376;2023-01-08T03:47:41;8.90;99.90
23827;DHT22;12094;50.822;4.376;2023-01-08T03:50:13;8.90;99.90
23827;DHT22;12094;50.822;4.376;2023-01-08T03:52:44;8.90;99.90
23827;DHT22;12094;50.822;4.376;2023-01-08T03:55:12;8.80;99.90
23827;DHT22;12094;50.822;4.376;2023-01-08T03:57:40;8.80;99.90
23827;DHT22;12094;50.822;4.376;2023-01-08T04:00:07;8.70;99.90
23827;DHT22;12094;50.822;4.376;2023-01-08T04:02:35;8.60;99.90
23827;DHT22;12094;50.822;4.376;2023-01-08T04:05:04;8.50;99.90
23827;DHT22;12094;50.822;4.376;2023-01-08T04:07:34;8.50;99.90
23827;DHT22;12094;50.822;4.376;2023-01-08T04:10:03;8.40;99.90
23827;DHT22;12094;50.822;4.376;2023-01-08T04:12:33;8.40;99.90
23827;DHT22;12094;50.822;4.376;2023-01-08T04:15:06;8.40;99.90
23827;DHT22;12094;50.822;4.376;2023-01-08T04:17:33;8.40;99.90
23827;DHT22;12094;50.822;4.376;2023-01-08T04:20:06;8.30;99.90
23827;DHT22;12094;50.822;4.376;2023-01-08T04:22:33;8.40;99.90
23827;DHT22;12094;50.822;4.376;2023-01-08T04:25:03;8.40;99.90
23827;DHT22;12094;50.822;4.376;2023-01-08T04:27:31;8.40;99.90
23827;DHT22;12094;50.822;4.376;2023-01-08T04:29:58;8.40;99.90
23827;DHT22;12094;50.822;4.376;2023-01-08T04:32:29;8.40;99.90
23827;DHT22;12094;50.822;4.376;2023-01-08T04:34:56;8.30;99.90
23827;DHT22;12094;50.822;4.376;2023-01-08T04:37:24;8.30;99.90
23827;DHT22;12094;50.822;4.376;2023-01-08T04:39:55;8.20;99.90
23827;DHT22;12094;50.822;4.376;2023-01-08T04:42:24;8.20;99.90
23827;DHT22;12094;50.822;4.376;2023-01-08T04:44:55;8.20;99.90
23827;DHT22;12094;50.822;4.376;2023-01-08T04:47:23;8.20;99.90
23827;DHT22;12094;50.822;4.376;2023-01-08T04:49:53;8.20;99.90
23827;DHT22;12094;50.822;4.376;2023-01-08T04:52:21;8.10;99.90
23827;DHT22;12094;50.822;4.376;2023-01-08T04:58:00;8.00;99.90
23827;DHT22;12094;50.822;4.376;2023-01-08T05:00:32;8.10;99.90
23827;DHT22;12094;50.822;4.376;2023-01-08T05:02:59;8.10;99.90
23827;DHT22;12094;50.822;4.376;2023-01-08T05:05:30;8.10;99.90
23827;DHT22;12094;50.822;4.376;2023-01-08T05:08:00;8.00;99.90
23827;DHT22;12094;50.822;4.376;2023-01-08T05:10:30;8.00;99.90
23827;DHT22;12094;50.822;4.376;2023-01-08T05:13:19;8.00;99.90
23827;DHT22;12094;50.822;4.376;2023-01-08T05:15:50;8.00;99.90
23827;DHT22;12094;50.822;4.376;2023-01-08T05:18:25;8.00;99.90
23827;DHT22;12094;50.822;4.376;2023-01-08T05:20:52;7.90;99.90
23827;DHT22;12094;50.822;4.376;2023-01-08T05:23:27;7.90;99.90
23827;DHT22;12094;50.822;4.376;2023-01-08T05:26:00;7.90;99.90
23827;DHT22;12094;50.822;4.376;2023-01-08T05:28:31;8.00;99.90
23827;DHT22;12094;50.822;4.376;2023-01-08T05:30:59;7.90;99.90
23827;DHT22;12094;50.822;4.376;2023-01-08T05:33:29;7.90;99.90
23827;DHT22;12094;50.822;4.376;2023-01-08T05:35:56;7.80;99.90
23827;DHT22;12094;50.822;4.376;2023-01-08T05:38:25;7.90;99.90
23827;DHT22;12094;50.822;4.376;2023-01-08T05:40:53;7.90;99.90
23827;DHT22;12094;50.822;4.376;2023-01-08T05:43:20;7.90;99.90
23827;DHT22;12094;50.822;4.376;2023-01-08T05:45:47;7.80;99.90
23827;DHT22;12094;50.822;4.376;2023-01-08T05:48:14;7.80;99.90
23827;DHT22;12094;50.822;4.376;2023-01-08T05:50:44;7.80;99.90
23827;DHT22;12094;50.822;4.376;2023-01-08T05:56:44;7.80;99.90
23827;DHT22;12094;50.822;4.376;2023-01-08T06:02:04;7.80;99.90
23827;DHT22;12094;50.822;4.376;2023-01-08T06:04:37;7.80;99.90
23827;DHT22;12094;50.822;4.376;2023-01-08T06:07:05;7.70;99.90
23827;DHT22;12094;50.822;4.376;2023-01-08T06:09:32;7.70;99.90
23827;DHT22;12094;50.822;4.376;2023-01-08T06:12:00;7.80;99.90
23827;DHT22;12094;50.822;4.376;2023-01-08T06:14:27;7.70;99.90
23827;DHT22;12094;50.822;4.376;2023-01-08T06:16:55;7.70;99.90
23827;DHT22;12094;50.822;4.376;2023-01-08T06:19:24;7.60;99.90
23827;DHT22;12094;50.822;4.376;2023-01-08T06:21:51;7.70;99.90
23827;DHT22;12094;50.822;4.376;2023-01-08T06:24:19;7.70;99.90
23827;DHT22;12094;50.822;4.376;2023-01-08T06:26:47;7.70;99.90
23827;DHT22;12094;50.822;4.376;2023-01-08T06:29:14;7.70;99.90
23827;DHT22;12094;50.822;4.376;2023-01-08T06:32:16;7.70;99.90
23827;DHT22;12094;50.822;4.376;2023-01-08T06:34:46;7.70;99.90
23827;DHT22;12094;50.822;4.376;2023-01-08T06:37:16;7.70;99.90
23827;DHT22;12094;50.822;4.376;2023-01-08T06:39:45;7.70;99.90
23827;DHT22;12094;50.822;4.376;2023-01-08T06:42:18;7.70;99.90
23827;DHT22;12094;50.822;4.376;2023-01-08T06:44:46;7.70;99.90
23827;DHT22;12094;50.822;4.376;2023-01-08T06:47:14;7.70;99.90
23827;DHT22;12094;50.822;4.376;2023-01-08T06:49:44;7.80;99.90
23827;DHT22;12094;50.822;4.376;2023-01-08T06:52:14;7.80;99.90
23827;DHT22;12094;50.822;4.376;2023-01-08T06:54:43;7.80;99.90
23827;DHT22;12094;50.822;4.376;2023-01-08T06:57:10;7.90;99.90
23827;DHT22;12094;50.822;4.376;2023-01-08T06:59:37;7.90;99.90
23827;DHT22;12094;50.822;4.376;2023-01-08T07:02:18;8.00;99.90
23827;DHT22;12094;50.822;4.376;2023-01-08T07:08:23;8.00;99.90
23827;DHT22;12094;50.822;4.376;2023-01-08T07:10:52;8.10;99.90
23827;DHT22;12094;50.822;4.376;2023-01-08T07:13:30;8.10;99.90
23827;DHT22;12094;50.822;4.376;2023-01-08T07:16:07;8.10;99.90
23827;DHT22;12094;50.822;4.376;2023-01-08T07:18:46;8.20;99.90
23827;DHT22;12094;50.822;4.376;2023-01-08T07:21:19;8.20;99.90
23827;DHT22;12094;50.822;4.376;2023-01-08T07:23:53;8.20;99.90
23827;DHT22;12094;50.822;4.376;2023-01-08T07:26:21;8.20;99.90
23827;DHT22;12094;50.822;4.376;2023-01-08T07:28:48;8.20;99.90
23827;DHT22;12094;50.822;4.376;2023-01-08T07:31:17;8.20;99.90
23827;DHT22;12094;50.822;4.376;2023-01-08T07:33:44;8.20;99.90
23827;DHT22;12094;50.822;4.376;2023-01-08T07:36:13;8.30;99.90
23827;DHT22;12094;50.822;4.376;2023-01-08T07:38:42;8.30;99.90
23827;DHT22;12094;50.822;4.376;2023-01-08T07:41:10;8.40;99.90
23827;DHT22;12094;50.822;4.376;2023-01-08T07:43:38;8.30;99.90
23827;DHT22;12094;50.822;4.376;2023-01-08T07:46:08;8.30;99.90
23827;DHT22;12094;50.822;4.376;2023-01-08T07:48:35;8.30;99.90
23827;DHT22;12094;50.822;4.376;2023-01-08T07:51:05;8.30;99.90
23827;DHT22;12094;50.822;4.376;2023-01-08T07:53:34;8.30;99.90
23827;DHT22;12094;50.822;4.376;2023-01-08T07:56:27;8.30;99.90
23827;DHT22;12094;50.822;4.376;2023-01-08T07:58:57;8.30;99.90
23827;DHT22;12094;50.822;4.376;2023-01-08T08:01:24;8.40;99.90
23827;DHT22;12094;50.822;4.376;2023-01-08T08:03:52;8.40;99.90
23827;DHT22;12094;50.822;4.376;2023-01-08T08:06:19;8.40;99.90
23827;DHT22;12094;50.822;4.376;2023-01-08T08:08:47;8.50;99.90
23827;DHT22;12094;50.822;4.376;2023-01-08T08:11:14;8.50;99.90
23827;DHT22;12094;50.822;4.376;2023-01-08T08:13:41;8.50;99.90
23827;DHT22;12094;50.822;4.376;2023-01-08T08:16:11;8.50;99.90
23827;DHT22;12094;50.822;4.376;2023-01-08T08:18:42;8.50;99.90
23827;DHT22;12094;50.822;4.376;2023-01-08T08:21:15;8.60;99.90
23827;DHT22;12094;50.822;4.376;2023-01-08T08:23:43;8.60;99.90
23827;DHT22;12094;50.822;4.376;2023-01-08T08:26:10;8.60;99.90
23827;DHT22;12094;50.822;4.376;2023-01-08T08:28:41;8.60;99.90
23827;DHT22;12094;50.822;4.376;2023-01-08T08:31:14;8.60;99.90
23827;DHT22;12094;50.822;4.376;2023-01-08T08:33:43;8.60;99.90
23827;DHT22;12094;50.822;4.376;2023-01-08T08:36:10;8.70;99.90
23827;DHT22;12094;50.822;4.376;2023-01-08T08:38:37;8.70;99.90
23827;DHT22;12094;50.822;4.376;2023-01-08T08:41:05;8.70;99.90
23827;DHT22;12094;50.822;4.376;2023-01-08T08:43:33;8.70;99.90
23827;DHT22;12094;50.822;4.376;2023-01-08T08:46:00;8.70;99.90
23827;DHT22;12094;50.822;4.376;2023-01-08T08:48:30;8.60;99.90
23827;DHT22;12094;50.822;4.376;2023-01-08T08:50:58;8.70;99.90
23827;DHT22;12094;50.822;4.376;2023-01-08T08:53:25;8.60;99.90
23827;DHT22;12094;50.822;4.376;2023-01-08T08:55:57;8.70;99.90
23827;DHT22;12094;50.822;4.376;2023-01-08T08:58:27;8.70;99.90
23827;DHT22;12094;50.822;4.376;2023-01-08T09:01:00;8.60;99.90
23827;DHT22;12094;50.822;4.376;2023-01-08T09:03:29;8.70;99.90
23827;DHT22;12094;50.822;4.376;2023-01-08T09:05:58;8.70;99.90
23827;DHT22;12094;50.822;4.376;2023-01-08T09:08:26;8.60;99.90
23827;DHT22;12094;50.822;4.376;2023-01-08T09:10:57;8.60;99.90
23827;DHT22;12094;50.822;4.376;2023-01-08T09:13:25;8.70;99.90
23827;DHT22;12094;50.822;4.376;2023-01-08T09:15:57;8.70;99.90
23827;DHT22;12094;50.822;4.376;2023-01-08T09:18:28;8.70;99.90
23827;DHT22;12094;50.822;4.376;2023-01-08T09:20:55;8.70;99.90
23827;DHT22;12094;50.822;4.376;2023-01-08T09:23:24;8.70;99.90
23827;DHT22;12094;50.822;4.376;2023-01-08T09:26:00;8.70;99.90
23827;DHT22;12094;50.822;4.376;2023-01-08T09:28:29;8.70;99.90
23827;DHT22;12094;50.822;4.376;2023-01-08T09:31:06;8.60;99.90
23827;DHT22;12094;50.822;4.376;2023-01-08T09:33:34;8.60;99.90
23827;DHT22;12094;50.822;4.376;2023-01-08T09:36:08;8.60;99.90
23827;DHT22;12094;50.822;4.376;2023-01-08T09:38:36;8.70;99.90
23827;DHT22;12094;50.822;4.376;2023-01-08T09:41:07;8.70;99.90
23827;DHT22;12094;50.822;4.376;2023-01-08T09:43:37;8.70;99.90
23827;DHT22;12094;50.822;4.376;2023-01-08T09:46:07;8.70;99.90
23827;DHT22;12094;50.822;4.376;2023-01-08T09:48:39;8.70;99.90
23827;DHT22;12094;50.822;4.376;2023-01-08T09:51:12;8.80;99.90
23827;DHT22;12094;50.822;4.376;2023-01-08T09:53:42;8.80;99.90
23827;DHT22;12094;50.822;4.376;2023-01-08T09:56:16;8.90;99.90
23827;DHT22;12094;50.822;4.376;2023-01-08T09:58:54;8.80;99.90
23827;DHT22;12094;50.822;4.376;2023-01-08T10:01:27;8.80;99.90
23827;DHT22;12094;50.822;4.376;2023-01-08T10:03:57;8.90;99.90
23827;DHT22;12094;50.822;4.376;2023-01-08T10:06:27;9.00;99.90
23827;DHT22;12094;50.822;4.376;2023-01-08T10:08:58;9.00;99.90
23827;DHT22;12094;50.822;4.376;2023-01-08T10:11:31;9.00;99.90
23827;DHT22;12094;50.822;4.376;2023-01-08T10:14:04;9.00;99.90
23827;DHT22;12094;50.822;4.376;2023-01-08T10:16:34;9.00;99.90
23827;DHT22;12094;50.822;4.376;2023-01-08T10:19:04;9.10;99.90
23827;DHT22;12094;50.822;4.376;2023-01-08T10:21:39;9.10;99.90
23827;DHT22;12094;50.822;4.376;2023-01-08T10:24:13;9.20;99.90
23827;DHT22;12094;50.822;4.376;2023-01-08T10:26:44;9.20;99.90
23827;DHT22;12094;50.822;4.376;2023-01-08T10:29:18;9.20;99.90
23827;DHT22;12094;50.822;4.376;2023-01-08T10:32:18;9.30;99.90
23827;DHT22;12094;50.822;4.376;2023-01-08T10:35:19;9.40;99.90
23827;DHT22;12094;50.822;4.376;2023-01-08T10:37:48;9.40;99.90
23827;DHT22;12094;50.822;4.376;2023-01-08T10:42:52;9.80;99.90
23827;DHT22;12094;50.822;4.376;2023-01-08T10:45:26;9.90;99.90
23827;DHT22;12094;50.822;4.376;2023-01-08T10:47:57;10.00;99.90
23827;DHT22;12094;50.822;4.376;2023-01-08T10:50:30;10.10;99.90
23827;DHT22;12094;50.822;4.376;2023-01-08T10:53:03;10.20;99.90
23827;DHT22;12094;50.822;4.376;2023-01-08T10:55:33;10.00;99.90
23827;DHT22;12094;50.822;4.376;2023-01-08T10:58:14;9.90;99.90
23827;DHT22;12094;50.822;4.376;2023-01-08T11:00:41;9.70;99.90
23827;DHT22;12094;50.822;4.376;2023-01-08T11:03:55;9.70;99.90
23827;DHT22;12094;50.822;4.376;2023-01-08T11:06:25;9.60;99.90
23827;DHT22;12094;50.822;4.376;2023-01-08T11:09:01;9.60;99.90
23827;DHT22;12094;50.822;4.376;2023-01-08T11:11:36;9.90;99.90
23827;DHT22;12094;50.822;4.376;2023-01-08T11:14:20;9.90;99.90
23827;DHT22;12094;50.822;4.376;2023-01-08T11:16:51;9.90;99.90
23827;DHT22;12094;50.822;4.376;2023-01-08T11:19:30;10.10;99.90
23827;DHT22;12094;50.822;4.376;2023-01-08T11:22:05;10.40;99.90
23827;DHT22;12094;50.822;4.376;2023-01-08T11:24:44;10.20;99.90
23827;DHT22;12094;50.822;4.376;2023-01-08T11:27:22;10.10;99.90
23827;DHT22;12094;50.822;4.376;2023-01-08T11:35:27;10.00;99.90
23827;DHT22;12094;50.822;4.376;2023-01-08T11:43:44;10.00;99.90
23827;DHT22;12094;50.822;4.376;2023-01-08T11:53:02;10.00;99.90
23827;DHT22;12094;50.822;4.376;2023-01-08T12:00:53;10.40;99.90
23827;DHT22;12094;50.822;4.376;2023-01-08T12:03:53;10.60;99.90
23827;DHT22;12094;50.822;4.376;2023-01-08T12:11:37;11.20;99.90
23827;DHT22;12094;50.822;4.376;2023-01-08T12:14:17;11.40;99.90
23827;DHT22;12094;50.822;4.376;2023-01-08T12:22:43;10.70;99.90
23827;DHT22;12094;50.822;4.376;2023-01-08T12:31:22;10.30;99.90
23827;DHT22;12094;50.822;4.376;2023-01-08T12:37:28;10.20;99.90
23827;DHT22;12094;50.822;4.376;2023-01-08T12:42:38;10.20;99.90
23827;DHT22;12094;50.822;4.376;2023-01-08T12:45:28;10.30;99.90
23827;DHT22;12094;50.822;4.376;2023-01-08T12:48:02;10.40;99.90
23827;DHT22;12094;50.822;4.376;2023-01-08T12:50:47;10.50;99.90
23827;DHT22;12094;50.822;4.376;2023-01-08T12:59:52;10.40;99.90
23827;DHT22;12094;50.822;4.376;2023-01-08T13:02:48;10.30;99.90
23827;DHT22;12094;50.822;4.376;2023-01-08T13:07:57;10.30;99.90
23827;DHT22;12094;50.822;4.376;2023-01-08T13:10:49;10.40;99.90
23827;DHT22;12094;50.822;4.376;2023-01-08T13:13:34;10.40;99.90
23827;DHT22;12094;50.822;4.376;2023-01-08T13:16:21;10.40;99.90
23827;DHT22;12094;50.822;4.376;2023-01-08T13:18:59;10.40;99.90
23827;DHT22;12094;50.822;4.376;2023-01-08T13:21:55;10.50;99.90
23827;DHT22;12094;50.822;4.376;2023-01-08T13:24:39;10.40;99.90
23827;DHT22;12094;50.822;4.376;2023-01-08T13:29:48;10.40;99.90
23827;DHT22;12094;50.822;4.376;2023-01-08T13:35:23;10.40;99.90
23827;DHT22;12094;50.822;4.376;2023-01-08T13:38:13;10.30;99.90
23827;DHT22;12094;50.822;4.376;2023-01-08T13:43:24;10.40;99.90
23827;DHT22;12094;50.822;4.376;2023-01-08T13:46:06;10.40;99.90
23827;DHT22;12094;50.822;4.376;2023-01-08T13:48:47;10.40;99.90
23827;DHT22;12094;50.822;4.376;2023-01-08T13:51:30;10.40;99.90
23827;DHT22;12094;50.822;4.376;2023-01-08T13:56:46;10.40;99.90
23827;DHT22;12094;50.822;4.376;2023-01-08T13:59:47;10.50;99.90
23827;DHT22;12094;50.822;4.376;2023-01-08T14:02:41;10.50;99.90
23827;DHT22;12094;50.822;4.376;2023-01-08T14:05:28;10.60;99.90
23827;DHT22;12094;50.822;4.376;2023-01-08T14:07:57;10.50;99.90
23827;DHT22;12094;50.822;4.376;2023-01-08T14:10:30;10.40;99.90
23827;DHT22;12094;50.822;4.376;2023-01-08T14:13:23;10.40;99.90
23827;DHT22;12094;50.822;4.376;2023-01-08T14:15:55;10.50;99.90
23827;DHT22;12094;50.822;4.376;2023-01-08T14:18:26;10.40;99.90
23827;DHT22;12094;50.822;4.376;2023-01-08T14:20:57;10.40;99.90
23827;DHT22;12094;50.822;4.376;2023-01-08T14:23:31;10.40;99.90
23827;DHT22;12094;50.822;4.376;2023-01-08T14:26:06;10.30;99.90
23827;DHT22;12094;50.822;4.376;2023-01-08T14:28:35;10.20;99.90
23827;DHT22;12094;50.822;4.376;2023-01-08T14:31:05;10.20;99.90
23827;DHT22;12094;50.822;4.376;2023-01-08T14:33:36;10.20;99.90
23827;DHT22;12094;50.822;4.376;2023-01-08T14:36:09;10.20;99.90
23827;DHT22;12094;50.822;4.376;2023-01-08T14:38:39;10.20;99.90
23827;DHT22;12094;50.822;4.376;2023-01-08T14:41:11;10.20;99.90
23827;DHT22;12094;50.822;4.376;2023-01-08T14:43:44;10.30;99.90
23827;DHT22;12094;50.822;4.376;2023-01-08T14:46:24;10.40;99.90
23827;DHT22;12094;50.822;4.376;2023-01-08T14:48:53;10.40;99.90
23827;DHT22;12094;50.822;4.376;2023-01-08T14:51:28;10.30;99.90
23827;DHT22;12094;50.822;4.376;2023-01-08T14:54:02;10.20;99.90
23827;DHT22;12094;50.822;4.376;2023-01-08T14:56:32;10.20;99.90
23827;DHT22;12094;50.822;4.376;2023-01-08T14:59:14;10.10;99.90
23827;DHT22;12094;50.822;4.376;2023-01-08T15:01:53;10.10;99.90
23827;DHT22;12094;50.822;4.376;2023-01-08T15:04:21;10.20;99.90
23827;DHT22;12094;50.822;4.376;2023-01-08T15:07:04;10.10;99.90
23827;DHT22;12094;50.822;4.376;2023-01-08T15:09:36;10.10;99.90
23827;DHT22;12094;50.822;4.376;2023-01-08T15:12:31;10.20;99.90
23827;DHT22;12094;50.822;4.376;2023-01-08T15:15:18;10.00;99.90
23827;DHT22;12094;50.822;4.376;2023-01-08T15:17:52;10.00;99.90
23827;DHT22;12094;50.822;4.376;2023-01-08T15:20:28;10.00;99.90
23827;DHT22;12094;50.822;4.376;2023-01-08T15:23:14;10.00;99.90
23827;DHT22;12094;50.822;4.376;2023-01-08T15:26:12;10.10;99.90
23827;DHT22;12094;50.822;4.376;2023-01-08T15:31:26;10.10;99.90
23827;DHT22;12094;50.822;4.376;2023-01-08T15:33:56;10.00;99.90
23827;DHT22;12094;50.822;4.376;2023-01-08T15:36:25;10.00;99.90
23827;DHT22;12094;50.822;4.376;2023-01-08T15:38:59;10.10;99.90
23827;DHT22;12094;50.822;4.376;2023-01-08T15:41:35;10.00;99.90
23827;DHT22;12094;50.822;4.376;2023-01-08T15:44:24;10.00;99.90
23827;DHT22;12094;50.822;4.376;2023-01-08T15:46:54;10.10;99.90
23827;DHT22;12094;50.822;4.376;2023-01-08T15:49:23;10.10;99.90
23827;DHT22;12094;50.822;4.376;2023-01-08T15:51:51;10.10;99.90
23827;DHT22;12094;50.822;4.376;2023-01-08T15:54:21;10.10;99.90
23827;DHT22;12094;50.822;4.376;2023-01-08T15:56:51;10.10;99.90
23827;DHT22;12094;50.822;4.376;2023-01-08T15:59:20;10.10;99.90
23827;DHT22;12094;50.822;4.376;2023-01-08T16:01:52;10.20;99.90
23827;DHT22;12094;50.822;4.376;2023-01-08T16:04:19;10.20;99.90
23827;DHT22;12094;50.822;4.376;2023-01-08T16:06:49;10.20;99.90
23827;DHT22;12094;50.822;4.376;2023-01-08T16:09:17;10.20;99.90
23827;DHT22;12094;50.822;4.376;2023-01-08T16:11:46;10.10;99.90
23827;DHT22;12094;50.822;4.376;2023-01-08T16:14:16;10.10;99.90
23827;DHT22;12094;50.822;4.376;2023-01-08T16:16:48;10.10;99.90
23827;DHT22;12094;50.822;4.376;2023-01-08T16:19:18;10.00;99.90
23827;DHT22;12094;50.822;4.376;2023-01-08T16:22:16;10.10;99.90
23827;DHT22;12094;50.822;4.376;2023-01-08T16:24:57;10.00;99.90
23827;DHT22;12094;50.822;4.376;2023-01-08T16:27:33;10.10;99.90
23827;DHT22;12094;50.822;4.376;2023-01-08T16:30:10;10.00;99.90
23827;DHT22;12094;50.822;4.376;2023-01-08T16:33:06;9.90;99.90
23827;DHT22;12094;50.822;4.376;2023-01-08T16:35:35;9.90;99.90
23827;DHT22;12094;50.822;4.376;2023-01-08T16:38:04;9.80;99.90
23827;DHT22;12094;50.822;4.376;2023-01-08T16:40:31;9.80;99.90
23827;DHT22;12094;50.822;4.376;2023-01-08T16:43:09;9.80;99.90
23827;DHT22;12094;50.822;4.376;2023-01-08T16:45:45;9.70;99.90
23827;DHT22;12094;50.822;4.376;2023-01-08T16:48:15;9.70;99.90
23827;DHT22;12094;50.822;4.376;2023-01-08T16:50:44;9.70;99.90
23827;DHT22;12094;50.822;4.376;2023-01-08T16:53:14;9.70;99.90
23827;DHT22;12094;50.822;4.376;2023-01-08T16:55:43;9.60;99.90
23827;DHT22;12094;50.822;4.376;2023-01-08T16:58:11;9.70;99.90
23827;DHT22;12094;50.822;4.376;2023-01-08T17:00:41;9.60;99.90
23827;DHT22;12094;50.822;4.376;2023-01-08T17:03:10;9.50;99.90
23827;DHT22;12094;50.822;4.376;2023-01-08T17:05:39;9.50;99.90
23827;DHT22;12094;50.822;4.376;2023-01-08T17:08:13;9.50;99.90
23827;DHT22;12094;50.822;4.376;2023-01-08T17:10:47;9.60;99.90
23827;DHT22;12094;50.822;4.376;2023-01-08T17:13:15;9.50;99.90
23827;DHT22;12094;50.822;4.376;2023-01-08T17:15:44;9.60;99.90
23827;DHT22;12094;50.822;4.376;2023-01-08T17:18:12;9.50;99.90
23827;DHT22;12094;50.822;4.376;2023-01-08T17:20:39;9.60;99.90
23827;DHT22;12094;50.822;4.376;2023-01-08T17:23:07;9.70;99.90
23827;DHT22;12094;50.822;4.376;2023-01-08T17:25:39;9.60;99.90
23827;DHT22;12094;50.822;4.376;2023-01-08T17:28:08;9.60;99.90
23827;DHT22;12094;50.822;4.376;2023-01-08T17:30:35;9.70;99.90
23827;DHT22;12094;50.822;4.376;2023-01-08T17:33:03;9.70;99.90
23827;DHT22;12094;50.822;4.376;2023-01-08T17:35:30;9.70;99.90
23827;DHT22;12094;50.822;4.376;2023-01-08T17:37:58;9.70;99.90
23827;DHT22;12094;50.822;4.376;2023-01-08T17:40:27;9.70;99.90
23827;DHT22;12094;50.822;4.376;2023-01-08T17:42:57;9.80;99.90
23827;DHT22;12094;50.822;4.376;2023-01-08T17:45:27;9.80;99.90
23827;DHT22;12094;50.822;4.376;2023-01-08T17:47:56;9.80;99.90
23827;DHT22;12094;50.822;4.376;2023-01-08T17:50:24;9.80;99.90
23827;DHT22;12094;50.822;4.376;2023-01-08T17:52:53;9.80;99.90
23827;DHT22;12094;50.822;4.376;2023-01-08T17:55:21;9.90;99.90
23827;DHT22;12094;50.822;4.376;2023-01-08T17:57:48;9.70;99.90
23827;DHT22;12094;50.822;4.376;2023-01-08T18:00:16;9.80;99.90
23827;DHT22;12094;50.822;4.376;2023-01-08T18:02:45;9.70;99.90